sensor_id;sensor_type;location;lat;lon;timestamp;P1;durP1;ratioP1;P2;durP2;ratioP2
64868;SDS011;51349;52.424;10.840;2023-05-17T00:03:01;5.13;;;2.90;;
64868;SDS011;51349;52.424;10.840;2023-05-17T00:08:02;4.80;;;2.87;;
64868;SDS011;51349;52.424;10.840;2023-05-17T00:13:02;9.50;;;3.20;;
64868;SDS011;51349;52.424;10.840;2023-05-17T00:18:03;6.87;;;3.30;;
64868;SDS011;51349;52.424;10.840;2023-05-17T00:23:04;5.40;;;3.10;;
64868;SDS011;51349;52.424;10.840;2023-05-17T00:28:05;4.57;;;3.00;;
64868;SDS011;51349;52.424;10.840;2023-05-17T00:33:05;5.40;;;3.00;;
64868;SDS011;51349;52.424;10.840;2023-05-17T00:38:06;4.37;;;2.80;;
64868;SDS011;51349;52.424;10.840;2023-05-17T00:43:06;8.17;;;3.20;;
64868;SDS011;51349;52.424;10.840;2023-05-17T00:48:07;7.83;;;3.50;;
64868;SDS011;51349;52.424;10.840;2023-05-17T00:53:08;7.20;;;3.67;;
64868;SDS011;51349;52.424;10.840;2023-05-17T00:58:15;6.67;;;3.30;;
64868;SDS011;51349;52.424;10.840;2023-05-17T01:03:15;7.53;;;3.27;;
64868;SDS011;51349;52.424;10.840;2023-05-17T01:08:16;5.83;;;3.17;;
64868;SDS011;51349;52.424;10.840;2023-05-17T01:18:22;5.90;;;3.33;;
64868;SDS011;51349;52.424;10.840;2023-05-17T01:23:44;4.43;;;3.30;;
64868;SDS011;51349;52.424;10.840;2023-05-17T01:28:58;4.87;;;2.80;;
64868;SDS011;51349;52.424;10.840;2023-05-17T01:33:59;6.37;;;3.00;;
64868;SDS011;51349;52.424;10.840;2023-05-17T01:39:00;10.00;;;3.60;;
64868;SDS011;51349;52.424;10.840;2023-05-17T01:44:06;7.13;;;3.60;;
64868;SDS011;51349;52.424;10.840;2023-05-17T01:49:17;5.27;;;3.33;;
64868;SDS011;51349;52.424;10.840;2023-05-17T01:54:26;6.10;;;3.33;;
64868;SDS011;51349;52.424;10.840;2023-05-17T01:59:44;6.20;;;3.10;;
64868;SDS011;51349;52.424;10.840;2023-05-17T02:04:47;4.30;;;3.20;;
64868;SDS011;51349;52.424;10.840;2023-05-17T02:09:48;5.87;;;3.10;;
64868;SDS011;51349;52.424;10.840;2023-05-17T02:14:48;7.27;;;3.10;;
64868;SDS011;51349;52.424;10.840;2023-05-17T02:19:49;4.10;;;3.20;;
64868;SDS011;51349;52.424;10.840;2023-05-17T02:24:49;6.30;;;3.73;;
64868;SDS011;51349;52.424;10.840;2023-05-17T02:29:50;5.67;;;3.30;;
64868;SDS011;51349;52.424;10.840;2023-05-17T02:34:51;6.13;;;3.50;;
64868;SDS011;51349;52.424;10.840;2023-05-17T02:39:51;8.67;;;3.70;;
64868;SDS011;51349;52.424;10.840;2023-05-17T02:44:52;6.87;;;3.60;;
64868;SDS011;51349;52.424;10.840;2023-05-17T02:49:55;9.13;;;3.60;;
64868;SDS011;51349;52.424;10.840;2023-05-17T02:54:55;6.57;;;3.40;;
64868;SDS011;51349;52.424;10.840;2023-05-17T02:59:56;8.37;;;3.37;;
64868;SDS011;51349;52.424;10.840;2023-05-17T03:04:57;7.30;;;3.80;;
64868;SDS011;51349;52.424;10.840;2023-05-17T03:09:57;6.37;;;3.47;;
64868;SDS011;51349;52.424;10.840;2023-05-17T03:14:58;6.77;;;3.67;;
64868;SDS011;51349;52.424;10.840;2023-05-17T03:19:58;9.27;;;4.07;;
64868;SDS011;51349;52.424;10.840;2023-05-17T03:24:59;6.00;;;3.80;;
64868;SDS011;51349;52.424;10.840;2023-05-17T03:30:00;6.27;;;3.57;;
64868;SDS011;51349;52.424;10.840;2023-05-17T03:35:01;8.47;;;4.20;;
64868;SDS011;51349;52.424;10.840;2023-05-17T03:40:01;8.97;;;3.70;;
64868;SDS011;51349;52.424;10.840;2023-05-17T03:45:02;7.73;;;3.93;;
64868;SDS011;51349;52.424;10.840;2023-05-17T03:50:04;6.37;;;4.07;;
64868;SDS011;51349;52.424;10.840;2023-05-17T03:55:06;7.10;;;4.20;;
64868;SDS011;51349;52.424;10.840;2023-05-17T04:00:08;8.43;;;4.10;;
64868;SDS011;51349;52.424;10.840;2023-05-17T04:05:10;5.87;;;3.93;;
64868;SDS011;51349;52.424;10.840;2023-05-17T04:10:12;8.40;;;3.87;;
64868;SDS011;51349;52.424;10.840;2023-05-17T04:15:12;9.00;;;3.93;;
64868;SDS011;51349;52.424;10.840;2023-05-17T04:20:13;10.37;;;4.30;;
64868;SDS011;51349;52.424;10.840;2023-05-17T04:25:14;11.87;;;4.27;;
64868;SDS011;51349;52.424;10.840;2023-05-17T04:30:15;8.13;;;4.17;;
64868;SDS011;51349;52.424;10.840;2023-05-17T04:35:15;6.53;;;4.07;;
64868;SDS011;51349;52.424;10.840;2023-05-17T04:40:16;10.97;;;4.40;;
64868;SDS011;51349;52.424;10.840;2023-05-17T04:45:17;10.33;;;4.70;;
64868;SDS011;51349;52.424;10.840;2023-05-17T04:50:18;10.47;;;4.37;;
64868;SDS011;51349;52.424;10.840;2023-05-17T04:55:19;7.47;;;4.60;;
64868;SDS011;51349;52.424;10.840;2023-05-17T05:00:20;8.47;;;4.43;;
64868;SDS011;51349;52.424;10.840;2023-05-17T05:05:22;10.37;;;4.00;;
64868;SDS011;51349;52.424;10.840;2023-05-17T05:10:26;9.27;;;3.93;;
64868;SDS011;51349;52.424;10.840;2023-05-17T05:15:30;10.47;;;4.60;;
64868;SDS011;51349;52.424;10.840;2023-05-17T05:20:31;9.07;;;3.67;;
64868;SDS011;51349;52.424;10.840;2023-05-17T05:25:32;12.30;;;4.53;;
64868;SDS011;51349;52.424;10.840;2023-05-17T05:30:34;11.30;;;4.00;;
64868;SDS011;51349;52.424;10.840;2023-05-17T05:35:35;10.27;;;4.00;;
64868;SDS011;51349;52.424;10.840;2023-05-17T05:40:35;10.73;;;4.00;;
64868;SDS011;51349;52.424;10.840;2023-05-17T05:45:36;12.40;;;3.60;;
64868;SDS011;51349;52.424;10.840;2023-05-17T05:50:40;9.33;;;3.70;;
64868;SDS011;51349;52.424;10.840;2023-05-17T05:55:44;9.37;;;3.53;;
64868;SDS011;51349;52.424;10.840;2023-05-17T06:00:45;10.57;;;3.30;;
64868;SDS011;51349;52.424;10.840;2023-05-17T06:05:46;9.87;;;2.90;;
64868;SDS011;51349;52.424;10.840;2023-05-17T06:10:47;8.30;;;2.97;;
64868;SDS011;51349;52.424;10.840;2023-05-17T06:15:48;8.80;;;3.10;;
64868;SDS011;51349;52.424;10.840;2023-05-17T06:20:48;7.00;;;2.47;;
64868;SDS011;51349;52.424;10.840;2023-05-17T06:25:49;9.07;;;3.23;;
64868;SDS011;51349;52.424;10.840;2023-05-17T06:30:51;5.93;;;2.60;;
64868;SDS011;51349;52.424;10.840;2023-05-17T06:35:51;7.23;;;2.33;;
64868;SDS011;51349;52.424;10.840;2023-05-17T06:40:53;10.20;;;2.73;;
64868;SDS011;51349;52.424;10.840;2023-05-17T06:45:55;9.63;;;2.13;;
64868;SDS011;51349;52.424;10.840;2023-05-17T06:50:55;12.13;;;2.25;;
64868;SDS011;51349;52.424;10.840;2023-05-17T06:55:56;7.78;;;2.65;;
64868;SDS011;51349;52.424;10.840;2023-05-17T07:00:56;6.38;;;2.22;;
64868;SDS011;51349;52.424;10.840;2023-05-17T07:05:57;5.07;;;1.80;;
64868;SDS011;51349;52.424;10.840;2023-05-17T07:10:58;4.60;;;1.67;;
64868;SDS011;51349;52.424;10.840;2023-05-17T07:15:58;6.03;;;2.10;;
64868;SDS011;51349;52.424;10.840;2023-05-17T07:20:59;6.95;;;2.13;;
64868;SDS011;51349;52.424;10.840;2023-05-17T07:26:00;5.13;;;1.60;;
64868;SDS011;51349;52.424;10.840;2023-05-17T07:31:01;4.05;;;1.92;;
64868;SDS011;51349;52.424;10.840;2023-05-17T07:36:02;4.72;;;1.65;;
64868;SDS011;51349;52.424;10.840;2023-05-17T07:41:03;6.18;;;1.90;;
64868;SDS011;51349;52.424;10.840;2023-05-17T07:46:08;6.07;;;1.75;;
64868;SDS011;51349;52.424;10.840;2023-05-17T07:51:09;4.45;;;1.67;;
64868;SDS011;51349;52.424;10.840;2023-05-17T07:56:09;3.50;;;1.73;;
64868;SDS011;51349;52.424;10.840;2023-05-17T08:01:10;7.82;;;1.77;;
64868;SDS011;51349;52.424;10.840;2023-05-17T08:06:10;2.85;;;1.58;;
64868;SDS011;51349;52.424;10.840;2023-05-17T08:11:12;5.70;;;1.50;;
64868;SDS011;51349;52.424;10.840;2023-05-17T08:16:13;5.75;;;1.88;;
64868;SDS011;51349;52.424;10.840;2023-05-17T08:21:13;5.93;;;1.70;;
64868;SDS011;51349;52.424;10.840;2023-05-17T08:26:14;5.25;;;2.08;;
64868;SDS011;51349;52.424;10.840;2023-05-17T08:31:15;6.03;;;2.10;;
64868;SDS011;51349;52.424;10.840;2023-05-17T08:36:15;5.22;;;1.67;;
64868;SDS011;51349;52.424;10.840;2023-05-17T08:41:16;5.22;;;1.80;;
64868;SDS011;51349;52.424;10.840;2023-05-17T08:46:18;5.78;;;1.85;;
64868;SDS011;51349;52.424;10.840;2023-05-17T08:51:20;5.95;;;1.90;;
64868;SDS011;51349;52.424;10.840;2023-05-17T08:56:22;9.60;;;1.90;;
64868;SDS011;51349;52.424;10.840;2023-05-17T09:01:23;7.72;;;2.25;;
64868;SDS011;51349;52.424;10.840;2023-05-17T09:06:24;2.80;;;1.50;;
64868;SDS011;51349;52.424;10.840;2023-05-17T09:11:29;5.00;;;1.73;;
64868;SDS011;51349;52.424;10.840;2023-05-17T09:16:36;3.80;;;1.60;;
64868;SDS011;51349;52.424;10.840;2023-05-17T09:21:37;4.63;;;2.08;;
64868;SDS011;51349;52.424;10.840;2023-05-17T09:26:42;4.43;;;1.70;;
64868;SDS011;51349;52.424;10.840;2023-05-17T09:31:44;3.30;;;1.60;;
64868;SDS011;51349;52.424;10.840;2023-05-17T09:36:45;4.53;;;2.05;;
64868;SDS011;51349;52.424;10.840;2023-05-17T09:41:46;4.18;;;1.65;;
64868;SDS011;51349;52.424;10.840;2023-05-17T09:46:48;4.78;;;1.70;;
64868;SDS011;51349;52.424;10.840;2023-05-17T09:51:49;5.13;;;1.90;;
64868;SDS011;51349;52.424;10.840;2023-05-17T09:56:53;4.65;;;1.65;;
64868;SDS011;51349;52.424;10.840;2023-05-17T10:01:54;3.47;;;1.98;;
64868;SDS011;51349;52.424;10.840;2023-05-17T10:06:58;4.32;;;1.88;;
64868;SDS011;51349;52.424;10.840;2023-05-17T10:12:03;7.45;;;2.30;;
64868;SDS011;51349;52.424;10.840;2023-05-17T10:17:06;6.13;;;2.03;;
64868;SDS011;51349;52.424;10.840;2023-05-17T10:22:08;5.78;;;1.95;;
64868;SDS011;51349;52.424;10.840;2023-05-17T10:27:10;6.43;;;2.40;;
64868;SDS011;51349;52.424;10.840;2023-05-17T10:32:18;5.50;;;2.08;;
64868;SDS011;51349;52.424;10.840;2023-05-17T10:37:22;7.25;;;2.28;;
64868;SDS011;51349;52.424;10.840;2023-05-17T10:42:24;3.30;;;1.85;;
64868;SDS011;51349;52.424;10.840;2023-05-17T10:47:32;3.83;;;1.85;;
64868;SDS011;51349;52.424;10.840;2023-05-17T10:52:33;2.53;;;1.77;;
64868;SDS011;51349;52.424;10.840;2023-05-17T10:57:44;5.43;;;1.85;;
64868;SDS011;51349;52.424;10.840;2023-05-17T11:03:11;6.03;;;2.00;;
64868;SDS011;51349;52.424;10.840;2023-05-17T11:08:19;2.95;;;1.55;;
64868;SDS011;51349;52.424;10.840;2023-05-17T11:13:24;4.53;;;1.90;;
64868;SDS011;51349;52.424;10.840;2023-05-17T11:18:26;2.30;;;1.90;;
64868;SDS011;51349;52.424;10.840;2023-05-17T11:23:27;8.80;;;1.70;;
64868;SDS011;51349;52.424;10.840;2023-05-17T11:28:31;2.80;;;1.90;;
64868;SDS011;51349;52.424;10.840;2023-05-17T11:33:38;4.32;;;2.10;;
64868;SDS011;51349;52.424;10.840;2023-05-17T11:38:47;4.70;;;1.90;;
64868;SDS011;51349;52.424;10.840;2023-05-17T11:44:07;9.30;;;2.08;;
64868;SDS011;51349;52.424;10.840;2023-05-17T11:49:09;4.82;;;1.92;;
64868;SDS011;51349;52.424;10.840;2023-05-17T11:54:10;2.90;;;1.85;;
64868;SDS011;51349;52.424;10.840;2023-05-17T11:59:17;3.72;;;1.73;;
64868;SDS011;51349;52.424;10.840;2023-05-17T12:04:25;5.25;;;1.95;;
64868;SDS011;51349;52.424;10.840;2023-05-17T12:09:26;3.03;;;1.75;;
64868;SDS011;51349;52.424;10.840;2023-05-17T12:14:28;5.95;;;1.80;;
64868;SDS011;51349;52.424;10.840;2023-05-17T12:19:29;2.85;;;1.75;;
64868;SDS011;51349;52.424;10.840;2023-05-17T12:24:38;3.35;;;1.70;;
64868;SDS011;51349;52.424;10.840;2023-05-17T12:29:41;5.72;;;1.98;;
64868;SDS011;51349;52.424;10.840;2023-05-17T12:34:42;4.05;;;1.77;;
64868;SDS011;51349;52.424;10.840;2023-05-17T12:39:42;2.63;;;1.75;;
64868;SDS011;51349;52.424;10.840;2023-05-17T12:44:45;3.88;;;1.83;;
64868;SDS011;51349;52.424;10.840;2023-05-17T12:49:52;2.38;;;1.60;;
64868;SDS011;51349;52.424;10.840;2023-05-17T12:54:57;2.65;;;1.50;;
64868;SDS011;51349;52.424;10.840;2023-05-17T12:59:58;2.50;;;1.48;;
64868;SDS011;51349;52.424;10.840;2023-05-17T13:05:39;2.35;;;1.52;;
64868;SDS011;51349;52.424;10.840;2023-05-17T13:10:36;2.80;;;1.75;;
64868;SDS011;51349;52.424;10.840;2023-05-17T13:15:36;2.45;;;1.50;;
64868;SDS011;51349;52.424;10.840;2023-05-17T13:20:37;5.40;;;1.63;;
64868;SDS011;51349;52.424;10.840;2023-05-17T13:25:37;3.38;;;1.90;;
64868;SDS011;51349;52.424;10.840;2023-05-17T13:30:38;3.78;;;1.60;;
64868;SDS011;51349;52.424;10.840;2023-05-17T13:35:39;4.38;;;1.80;;
64868;SDS011;51349;52.424;10.840;2023-05-17T13:40:40;3.65;;;1.85;;
64868;SDS011;51349;52.424;10.840;2023-05-17T13:45:40;3.20;;;1.70;;
64868;SDS011;51349;52.424;10.840;2023-05-17T13:50:41;5.75;;;1.73;;
64868;SDS011;51349;52.424;10.840;2023-05-17T13:55:43;2.72;;;1.42;;
64868;SDS011;51349;52.424;10.840;2023-05-17T14:00:44;4.03;;;1.10;;
64868;SDS011;51349;52.424;10.840;2023-05-17T14:05:45;2.10;;;1.63;;
64868;SDS011;51349;52.424;10.840;2023-05-17T14:10:49;2.08;;;1.30;;
64868;SDS011;51349;52.424;10.840;2023-05-17T14:15:49;2.13;;;1.30;;
64868;SDS011;51349;52.424;10.840;2023-05-17T14:20:50;1.95;;;1.58;;
64868;SDS011;51349;52.424;10.840;2023-05-17T14:25:52;2.58;;;1.60;;
64868;SDS011;51349;52.424;10.840;2023-05-17T14:30:52;4.07;;;1.50;;
64868;SDS011;51349;52.424;10.840;2023-05-17T14:35:53;2.75;;;1.17;;
64868;SDS011;51349;52.424;10.840;2023-05-17T14:40:54;5.90;;;1.73;;
64868;SDS011;51349;52.424;10.840;2023-05-17T14:45:54;3.53;;;1.38;;
64868;SDS011;51349;52.424;10.840;2023-05-17T14:50:55;3.47;;;1.52;;
64868;SDS011;51349;52.424;10.840;2023-05-17T14:55:56;3.33;;;1.73;;
64868;SDS011;51349;52.424;10.840;2023-05-17T15:00:57;3.22;;;1.80;;
64868;SDS011;51349;52.424;10.840;2023-05-17T15:05:58;4.15;;;1.25;;
64868;SDS011;51349;52.424;10.840;2023-05-17T15:10:59;3.78;;;1.70;;
64868;SDS011;51349;52.424;10.840;2023-05-17T15:16:01;1.90;;;1.10;;
64868;SDS011;51349;52.424;10.840;2023-05-17T15:21:02;3.15;;;1.52;;
64868;SDS011;51349;52.424;10.840;2023-05-17T15:26:02;1.67;;;1.40;;
64868;SDS011;51349;52.424;10.840;2023-05-17T15:31:03;2.00;;;1.40;;
64868;SDS011;51349;52.424;10.840;2023-05-17T15:36:10;3.65;;;1.60;;
64868;SDS011;51349;52.424;10.840;2023-05-17T15:41:15;3.47;;;1.60;;
64868;SDS011;51349;52.424;10.840;2023-05-17T15:46:16;2.38;;;1.73;;
64868;SDS011;51349;52.424;10.840;2023-05-17T15:51:18;4.47;;;1.23;;
64868;SDS011;51349;52.424;10.840;2023-05-17T15:56:20;2.92;;;1.50;;
64868;SDS011;51349;52.424;10.840;2023-05-17T16:01:22;5.40;;;1.90;;
64868;SDS011;51349;52.424;10.840;2023-05-17T16:06:22;3.08;;;1.50;;
64868;SDS011;51349;52.424;10.840;2023-05-17T16:11:23;3.60;;;1.75;;
64868;SDS011;51349;52.424;10.840;2023-05-17T16:16:23;4.05;;;1.70;;
64868;SDS011;51349;52.424;10.840;2023-05-17T16:21:24;3.63;;;1.70;;
64868;SDS011;51349;52.424;10.840;2023-05-17T16:26:25;2.53;;;1.63;;
64868;SDS011;51349;52.424;10.840;2023-05-17T16:31:26;4.35;;;1.90;;
64868;SDS011;51349;52.424;10.840;2023-05-17T16:36:27;2.97;;;1.73;;
64868;SDS011;51349;52.424;10.840;2023-05-17T16:41:28;2.65;;;1.85;;
64868;SDS011;51349;52.424;10.840;2023-05-17T16:46:30;4.20;;;1.52;;
64868;SDS011;51349;52.424;10.840;2023-05-17T16:51:31;4.20;;;1.85;;
64868;SDS011;51349;52.424;10.840;2023-05-17T16:56:32;5.25;;;1.80;;
64868;SDS011;51349;52.424;10.840;2023-05-17T17:01:33;3.47;;;1.73;;
64868;SDS011;51349;52.424;10.840;2023-05-17T17:06:33;4.10;;;1.92;;
64868;SDS011;51349;52.424;10.840;2023-05-17T17:11:34;4.55;;;1.75;;
64868;SDS011;51349;52.424;10.840;2023-05-17T17:16:35;4.45;;;1.75;;
64868;SDS011;51349;52.424;10.840;2023-05-17T17:21:37;3.33;;;1.63;;
64868;SDS011;51349;52.424;10.840;2023-05-17T17:26:37;2.65;;;1.40;;
64868;SDS011;51349;52.424;10.840;2023-05-17T17:31:38;2.70;;;1.60;;
64868;SDS011;51349;52.424;10.840;2023-05-17T17:36:38;3.05;;;1.30;;
64868;SDS011;51349;52.424;10.840;2023-05-17T17:41:39;3.47;;;1.58;;
64868;SDS011;51349;52.424;10.840;2023-05-17T17:46:40;8.82;;;3.78;;
64868;SDS011;51349;52.424;10.840;2023-05-17T17:51:41;2.78;;;1.80;;
64868;SDS011;51349;52.424;10.840;2023-05-17T17:56:42;3.83;;;1.70;;
64868;SDS011;51349;52.424;10.840;2023-05-17T18:01:42;3.63;;;1.65;;
64868;SDS011;51349;52.424;10.840;2023-05-17T18:06:43;4.72;;;1.83;;
64868;SDS011;51349;52.424;10.840;2023-05-17T18:11:44;2.38;;;1.40;;
64868;SDS011;51349;52.424;10.840;2023-05-17T18:16:45;3.92;;;1.70;;
64868;SDS011;51349;52.424;10.840;2023-05-17T18:21:46;1.67;;;1.45;;
64868;SDS011;51349;52.424;10.840;2023-05-17T18:26:49;2.75;;;1.60;;
64868;SDS011;51349;52.424;10.840;2023-05-17T18:31:49;1.63;;;1.30;;
64868;SDS011;51349;52.424;10.840;2023-05-17T18:36:50;2.95;;;1.92;;
64868;SDS011;51349;52.424;10.840;2023-05-17T18:41:51;1.83;;;1.38;;
64868;SDS011;51349;52.424;10.840;2023-05-17T18:46:52;3.13;;;1.65;;
64868;SDS011;51349;52.424;10.840;2023-05-17T18:51:52;3.97;;;1.52;;
64868;SDS011;51349;52.424;10.840;2023-05-17T18:56:53;3.53;;;1.85;;
64868;SDS011;51349;52.424;10.840;2023-05-17T19:01:54;4.22;;;1.70;;
64868;SDS011;51349;52.424;10.840;2023-05-17T19:06:55;2.53;;;1.50;;
64868;SDS011;51349;52.424;10.840;2023-05-17T19:11:55;4.22;;;1.70;;
64868;SDS011;51349;52.424;10.840;2023-05-17T19:16:56;2.90;;;1.60;;
64868;SDS011;51349;52.424;10.840;2023-05-17T19:21:57;3.25;;;1.40;;
64868;SDS011;51349;52.424;10.840;2023-05-17T19:26:59;4.20;;;1.85;;
64868;SDS011;51349;52.424;10.840;2023-05-17T19:32:00;2.95;;;1.45;;
64868;SDS011;51349;52.424;10.840;2023-05-17T19:37:00;2.75;;;1.48;;
64868;SDS011;51349;52.424;10.840;2023-05-17T19:42:02;5.05;;;2.17;;
64868;SDS011;51349;52.424;10.840;2023-05-17T19:47:02;5.28;;;1.70;;
64868;SDS011;51349;52.424;10.840;2023-05-17T19:52:03;3.42;;;1.65;;
64868;SDS011;51349;52.424;10.840;2023-05-17T19:57:04;3.95;;;1.50;;
64868;SDS011;51349;52.424;10.840;2023-05-17T20:02:05;4.13;;;2.03;;
64868;SDS011;51349;52.424;10.840;2023-05-17T20:07:06;3.33;;;1.75;;
64868;SDS011;51349;52.424;10.840;2023-05-17T20:12:07;4.95;;;1.67;;
64868;SDS011;51349;52.424;10.840;2023-05-17T20:17:08;3.60;;;1.70;;
64868;SDS011;51349;52.424;10.840;2023-05-17T20:22:08;2.50;;;1.75;;
64868;SDS011;51349;52.424;10.840;2023-05-17T20:27:09;4.38;;;1.95;;
64868;SDS011;51349;52.424;10.840;2023-05-17T20:32:10;5.25;;;1.80;;
64868;SDS011;51349;52.424;10.840;2023-05-17T20:37:11;4.28;;;1.70;;
64868;SDS011;51349;52.424;10.840;2023-05-17T20:42:12;2.83;;;2.17;;
64868;SDS011;51349;52.424;10.840;2023-05-17T20:47:17;3.47;;;1.75;;
64868;SDS011;51349;52.424;10.840;2023-05-17T20:52:17;3.97;;;2.00;;
64868;SDS011;51349;52.424;10.840;2023-05-17T20:57:21;5.72;;;1.90;;
64868;SDS011;51349;52.424;10.840;2023-05-17T21:02:22;5.15;;;2.00;;
64868;SDS011;51349;52.424;10.840;2023-05-17T21:07:23;3.42;;;1.70;;
64868;SDS011;51349;52.424;10.840;2023-05-17T21:12:29;3.30;;;1.95;;
64868;SDS011;51349;52.424;10.840;2023-05-17T21:17:29;4.97;;;1.90;;
64868;SDS011;51349;52.424;10.840;2023-05-17T21:22:30;2.73;;;1.90;;
64868;SDS011;51349;52.424;10.840;2023-05-17T21:27:32;5.47;;;1.90;;
64868;SDS011;51349;52.424;10.840;2023-05-17T21:32:33;3.43;;;1.80;;
64868;SDS011;51349;52.424;10.840;2023-05-17T21:37:33;4.43;;;2.17;;
64868;SDS011;51349;52.424;10.840;2023-05-17T21:42:38;5.30;;;2.20;;
64868;SDS011;51349;52.424;10.840;2023-05-17T21:47:40;2.67;;;1.83;;
64868;SDS011;51349;52.424;10.840;2023-05-17T21:52:40;3.93;;;2.07;;
64868;SDS011;51349;52.424;10.840;2023-05-17T21:57:41;2.93;;;1.97;;
64868;SDS011;51349;52.424;10.840;2023-05-17T22:02:42;4.93;;;1.90;;
64868;SDS011;51349;52.424;10.840;2023-05-17T22:07:43;3.93;;;1.80;;
64868;SDS011;51349;52.424;10.840;2023-05-17T22:12:44;3.40;;;1.93;;
64868;SDS011;51349;52.424;10.840;2023-05-17T22:17:49;4.73;;;2.10;;
64868;SDS011;51349;52.424;10.840;2023-05-17T22:22:49;2.57;;;1.93;;
64868;SDS011;51349;52.424;10.840;2023-05-17T22:27:50;6.40;;;2.20;;
64868;SDS011;51349;52.424;10.840;2023-05-17T22:32:50;2.73;;;1.90;;
64868;SDS011;51349;52.424;10.840;2023-05-17T22:37:53;6.70;;;2.40;;
64868;SDS011;51349;52.424;10.840;2023-05-17T22:42:54;3.37;;;2.10;;
64868;SDS011;51349;52.424;10.840;2023-05-17T22:47:57;4.37;;;2.27;;
64868;SDS011;51349;52.424;10.840;2023-05-17T22:52:57;3.30;;;1.90;;
64868;SDS011;51349;52.424;10.840;2023-05-17T22:57:59;6.83;;;2.03;;
64868;SDS011;51349;52.424;10.840;2023-05-17T23:02:59;4.20;;;2.10;;
64868;SDS011;51349;52.424;10.840;2023-05-17T23:08:00;6.80;;;2.10;;
64868;SDS011;51349;52.424;10.840;2023-05-17T23:13:01;4.40;;;2.00;;
64868;SDS011;51349;52.424;10.840;2023-05-17T23:18:01;5.30;;;2.23;;
64868;SDS011;51349;52.424;10.840;2023-05-17T23:23:02;6.40;;;2.10;;
64868;SDS011;51349;52.424;10.840;2023-05-17T23:28:03;3.47;;;1.87;;
64868;SDS011;51349;52.424;10.840;2023-05-17T23:33:04;4.00;;;2.00;;
64868;SDS011;51349;52.424;10.840;2023-05-17T23:38:05;6.40;;;2.27;;
64868;SDS011;51349;52.424;10.840;2023-05-17T23:43:06;3.37;;;2.00;;
64868;SDS011;51349;52.424;10.840;2023-05-17T23:48:08;6.27;;;2.10;;
64868;SDS011;51349;52.424;10.840;2023-05-17T23:53:09;3.87;;;2.10;;
64868;SDS011;51349;52.424;10.840;2023-05-17T23:58:10;5.77;;;2.13;;
